KHOU METAR and TAF | Updated Today

KHOU METAR

William P Hobby Airport

Observation time: 4 min. ago

KHOU 301753Z 15010KT 10SM FEW030 SCT220 23/13 A3017 RMK AO2 SLP223 T02280128 10228 20094 58008

Need help? Read our tutorial on how to read METARs or read the parsed version below.

William P Hobby Airport (KHOU) METAR

  • Weather conditions on Tue, 30 Nov 2021 17:53:00 +0000 (4 min. ago):
  • Present conditions: Dry
  • Clouds: A few at 914 meters; scattered at 6706 meters
  • Visibility: 16093 meters
  • Wind: 150 degrees at 10 knots
  • Temperature: 23 celsius
  • Dew point: 13 celsius
  • Pressure: 30.17 inHg
  • Remarks: AO2 SLP223 T02280128 10228 20094 58008


Useful to know...

KHOU TAF

William P Hobby Airport

KHOU 301505Z 3015/0112 15007KT P6SM SCT250 FM010100 15005KT P6SM SCT250 FM010700 VRB02KT 3SM BR SCT003 BKN012
Observation time: 2:52 hr. ago
Need help? Read our tutorial on how to read TAFs or read the parsed version below.

Parsed version of TAF for William P Hobby Airport (KHOU)

  • From 30 November at 15:00 UTC, to day 01 of the month at 12:00 UTC
  • Clouds: Scattered at 7620 meters
  • Wind: 150 degrees at 7
  • From day 1 of the month at 01:00 UTC
  • Clouds: Scattered at 7620 meters
  • Wind: 150 degrees at 5
  • From day 1 of the month at 07:00 UTC
  • Clouds: Scattered at 91 meters; broken sky at 366 meters
  • Visibility: 4828 meters
  • Wind: Variable at 2
  • Other: Mist